Latest Coastal Weather Observations for Bairnsdale

IDV60701

Issued at 5:32 pm EST Wednesday 19 September 2018 (issued every 10 minutes, with the page automatically refreshed every 10 minutes)

About coastal observations | Map of coastal stations | Coastal observations for VIC | Marine services | Other Formats
Station Details ID: 085279 Name: BAIRNSDALE AIRPORT Lat: -37.88 Lon: 147.57 Height: 49.4 m
Data from the previous 72 hours. | See also: Recent months at Bairnsdale
Date/Time
EST
Wind Sea
Height
m
Swell Vis
km
Cloud Weather Temp
°C
Press
hPa
Rain since
9am
mm
Dir  Spd
kts
Gust
kts
Height
m
Period
s
Dir
19/05:30pm WSW 14 18 - - - - 10 Partly cloudy - 10.9 1014.4 0.0
19/05:00pm WSW 19 27 - - - - 10 Partly cloudy - 11.5 1014.0 0.0
19/04:30pm WSW 15 20 - - - - 10 Cloudy - 11.3 1013.5 0.0
19/04:00pm WSW 18 28 - - - - 10 Partly cloudy - 13.2 1013.3 0.0
19/03:55pm SW 17 28 - - - - 10 Partly cloudy - 12.6 1013.3 0.0
19/03:30pm SW 22 28 - - - - 10 Partly cloudy - 11.6 1013.0 0.0
19/03:00pm SW 21 26 - - - - 10 Mostly clear - 13.8 1012.5 0.0
19/02:30pm WSW 22 30 - - - - 10 Partly cloudy - 15.5 1011.9 0.0
19/02:02pm SW 21 31 - - - - 10 - - 15.2 1011.6 0.0
19/02:00pm WSW 22 31 - - - - 10 - - 14.9 1011.6 0.0
19/01:45pm WSW 18 28 - - - - 10 - - 15.9 1011.3 0.0
19/01:30pm WSW 20 27 - - - - 10 - - 15.0 1011.2 0.0
19/01:01pm SW 19 29 - - - - 10 Partly cloudy - 15.3 1011.2 0.0
19/01:00pm SW 19 28 - - - - 10 Partly cloudy - 15.1 1011.2 0.0
19/12:30pm SW 19 31 - - - - 10 Partly cloudy - 15.1 1011.4 0.0
19/12:15pm WSW 15 25 - - - - 10 Partly cloudy - 13.8 1011.4 0.0
19/12:00pm WSW 19 25 - - - - 10 Mostly clear - 14.4 1011.3 0.0
19/11:30am WSW 15 23 - - - - 10 Partly cloudy - 12.7 1011.2 0.0
19/11:03am WSW 18 28 - - - - 10 Partly cloudy - 14.7 1010.9 0.0
19/11:00am WSW 19 28 - - - - 10 - - 14.7 1010.8 0.0
19/10:30am W 19 23 - - - - 10 - - 13.4 1010.8 0.0
19/10:00am WSW 18 23 - - - - 10 Partly cloudy - 11.9 1010.8 0.0
19/09:30am WSW 19 26 - - - - 10 Partly cloudy - 12.4 1010.3 0.0
19/09:16am WSW 17 27 - - - - 10 Cloudy - 11.6 1010.5 0.0
19/09:00am WSW 15 22 - - - - 10 Partly cloudy - 11.4 1010.4 1.2
19/08:30am W 11 15 - - - - 10 - - 11.0 1010.3 1.2
19/08:00am WNW 7 13 - - - - 10 - - 9.7 1010.1 1.2
19/07:30am W 6 9 - - - - 10 Partly cloudy - 8.3 1009.9 1.2
19/07:00am NW 7 11 - - - - 10 Partly cloudy - 8.5 1009.7 1.2
19/06:30am NNW 5 7 - - - - 10 Partly cloudy - 8.0 1009.3 1.2
19/06:00am WNW 4 5 - - - - 10 Cloudy Rain 8.2 1009.1 1.2
19/05:30am SW 7 9 - - - - 8 Partly cloudy - 8.4 1008.9 0.8
19/05:00am WSW 11 15 - - - - 9 Cloudy - 8.6 1008.9 0.2
19/04:30am SW 14 19 - - - - 10 Partly cloudy - 8.9 1008.4 0.0
19/04:00am SW 15 19 - - - - 10 Partly cloudy - 9.5 1008.5 0.0
19/03:30am SW 15 19 - - - - 10 Partly cloudy - 9.4 1008.0 0.0
19/03:00am SW 12 17 - - - - 10 Mostly clear - 9.8 1008.0 0.0
19/02:30am SW 6 10 - - - - 10 Partly cloudy - 8.9 1007.9 0.0
19/02:00am NW 6 7 - - - - 10 Partly cloudy - 11.2 1008.6 0.0
19/01:30am NW 6 9 - - - - 10 Partly cloudy - 11.6 1009.1 0.0
19/01:00am WNW 12 16 - - - - 10 Partly cloudy - 11.8 1009.7 0.0
19/12:30am W 16 22 - - - - 10 Partly cloudy - 11.1 1010.0 0.0
19/12:00am W 16 21 - - - - 10 Mostly clear - 12.4 1009.6 0.0
 
Date/Time
EST
Wind Sea
Height
m
Swell Vis
km
Cloud Weather Temp
°C
Press
hPa
Rain since
9am
mm
Dir  Spd
kts
Gust
kts
Height
m
Period
s
Dir
18/11:30pm WSW 12 16 - - - - 10 - - 12.3 1009.3 0.0
18/11:00pm WSW 11 13 - - - - 10 Partly cloudy - 12.1 1009.3 0.0
18/10:30pm WSW 7 9 - - - - 10 Cloudy - 12.1 1009.3 0.0
18/10:00pm WSW 7 9 - - - - 10 Partly cloudy - 12.1 1009.0 0.0
18/09:30pm SW 7 9 - - - - 10 Partly cloudy - 13.0 1008.9 0.0
18/09:00pm WSW 11 15 - - - - 10 Mostly cloudy - 15.0 1009.3 0.0
18/08:30pm SW 8 11 - - - - 10 - - 13.9 1009.2 0.0
18/08:00pm WSW 3 5 - - - - 10 - - 16.2 1008.7 0.0
18/07:30pm WNW 8 11 - - - - 10 - - 17.0 1009.1 0.0
18/07:00pm NW 7 9 - - - - 10 - - 17.6 1009.0 0.0
18/06:30pm NW 7 10 - - - - 10 - - 17.4 1008.8 0.0
18/06:00pm NNW 11 19 - - - - 10 - - 19.0 1008.5 0.0
18/05:30pm NW 13 19 - - - - 10 - - 19.7 1008.1 0.0
18/05:00pm NW 15 24 - - - - 10 - - 20.7 1007.8 0.0
18/04:39pm NNW 18 28 - - - - 10 - - 21.4 1007.4 0.0
18/04:30pm NNW 17 26 - - - - 10 - - 20.7 1007.3 0.0
18/04:00pm NNW 15 19 - - - - 10 - - 20.8 1007.2 0.0
18/03:30pm NNW 16 24 - - - - 10 - - 22.3 1007.2 0.0
18/03:00pm NW 17 24 - - - - 10 - - 22.9 1007.3 0.0
18/02:30pm NW 20 27 - - - - 10 - - 22.9 1007.2 0.0
18/02:00pm NNW 18 24 - - - - 10 - - 21.7 1007.2 0.0
18/01:30pm NW 14 20 - - - - 10 - - 21.2 1007.9 0.0
18/01:00pm NW 16 25 - - - - 10 - - 20.8 1008.4 0.0
18/12:37pm NW 17 27 - - - - 10 - - 21.0 1008.9 0.0
18/12:30pm NW 19 27 - - - - 10 - - 22.5 1009.0 0.0
18/12:00pm NNW 19 29 - - - - 10 - - 21.9 1009.7 0.0
18/11:52am NNW 17 29 - - - - 10 - - 22.0 1009.8 0.0
18/11:30am NNW 18 26 - - - - 10 - - 21.6 1010.0 0.0
18/11:00am NW 19 27 - - - - 10 - - 20.9 1010.6 0.0
18/10:30am NNW 19 29 - - - - 10 - - 20.5 1011.0 0.0
18/10:28am NNW 18 29 - - - - 10 - - 20.6 1011.0 0.0
18/10:00am NNE 9 20 - - - - 10 - - 18.6 1011.7 0.0
18/09:30am NNE 9 13 - - - - 10 - - 16.8 1012.3 0.0
18/09:00am NE 7 9 - - - - 10 - - 15.5 1012.6 0.0
18/08:30am NE 4 7 - - - - 10 - - 13.8 1013.1 0.0
18/08:00am NE 6 11 - - - - 10 - - 11.7 1013.3 0.0
18/07:30am NNE 8 11 - - - - 10 - - 10.1 1013.2 0.0
18/07:00am NNE 5 9 - - - - 10 - - 9.7 1013.6 0.0
18/06:30am NE 5 6 - - - - 10 - - 8.3 1013.7 0.0
18/06:00am N 7 10 - - - - 10 - - 11.2 1013.8 0.0
18/05:30am NNW 8 11 - - - - 10 - - 10.6 1013.9 0.0
18/05:00am NNE 5 8 - - - - 10 - - 7.4 1013.9 0.0
18/04:30am NNE 6 8 - - - - 10 - - 6.8 1013.6 0.0
18/04:00am NNE 5 7 - - - - 10 - - 7.0 1013.6 0.0
18/03:30am NNE 5 7 - - - - 10 - - 6.7 1013.5 0.0
18/03:00am NNE 7 8 - - - - 10 - - 7.3 1013.7 0.0
18/02:30am NE 5 7 - - - - 10 - - 6.8 1014.0 0.0
18/02:00am NNE 5 7 - - - - 10 - - 7.5 1014.3 0.0
18/01:30am NNE 6 7 - - - - 10 - - 7.4 1014.6 0.0
18/01:00am NNE 6 8 - - - - 10 - - 7.1 1014.9 0.0
18/12:30am NE 6 7 - - - - 10 - - 6.7 1015.3 0.0
18/12:00am NE 7 9 - - - - 10 - - 7.3 1015.7 0.0
 
Date/Time
EST
Wind Sea
Height
m
Swell Vis
km
Cloud Weather Temp
°C
Press
hPa
Rain since
9am
mm
Dir  Spd
kts
Gust
kts
Height
m
Period
s
Dir
17/11:30pm CALM 0 2 - - - - 10 - - 5.9 1016.4 0.0
17/11:00pm N 4 5 - - - - 10 - - 6.3 1016.8 0.0
17/10:30pm NNE 5 6 - - - - 10 - - 6.5 1016.9 0.0
17/10:00pm NW 4 5 - - - - 10 - - 7.7 1017.5 0.0
17/09:30pm NNE 3 5 - - - - 10 - - 6.4 1017.6 0.0
17/09:00pm NE 4 6 - - - - 10 - - 8.5 1017.6 0.0
17/08:30pm NE 5 7 - - - - 10 - - 9.0 1017.8 0.0
17/08:00pm ENE 6 7 - - - - 10 - - 9.4 1017.9 0.0
17/07:30pm ENE 7 10 - - - - 10 - - 10.1 1017.9 0.0
17/07:00pm ENE 9 12 - - - - 10 - - 10.9 1017.7 0.0
17/06:30pm ENE 11 15 - - - - 10 - - 11.4 1017.4 0.0
17/06:00pm E 10 15 - - - - 10 - - 11.7 1017.3 0.0
17/05:30pm E 12 16 - - - - 10 - - 12.6 1017.1 0.0
17/05:00pm E 14 18 - - - - 10 - - 13.4 1017.0 0.0
17/04:30pm ENE 13 17 - - - - 10 - - 14.3 1017.0 0.0
17/04:00pm E 12 15 - - - - 10 - - 15.0 1017.0 0.0
17/03:30pm ESE 11 13 - - - - 10 - - 16.3 1017.1 0.0
17/03:00pm ESE 12 15 - - - - 10 - - 16.5 1017.2 0.0
17/02:30pm SE 13 16 - - - - 10 - - 16.3 1017.6 0.0
17/02:00pm SE 12 16 - - - - 10 - - 16.7 1017.8 0.0
17/01:30pm WNW 5 9 - - - - 10 - - 17.7 1018.0 0.0
17/01:00pm WNW 4 8 - - - - 10 - - 18.4 1018.5 0.0
17/12:30pm W 5 8 - - - - 10 - - 17.1 1019.1 0.0
17/12:00pm WNW 8 13 - - - - 10 - - 15.8 1019.7 0.0
17/11:30am WNW 7 12 - - - - 10 - - 15.8 1020.4 0.0
17/11:00am NW 8 13 - - - - 10 - - 15.1 1020.7 0.0
17/10:30am NNW 7 11 - - - - 10 - - 14.7 1021.2 0.0
17/10:00am NNW 6 10 - - - - 10 - - 14.0 1021.8 0.0
17/09:30am NNW 5 9 - - - - 10 - - 13.3 1022.2 0.0
17/09:00am NW 5 6 - - - - 10 - - 10.8 1022.5 0.0
17/08:30am NNW 5 7 - - - - 10 - - 8.8 1022.8 0.0
17/08:00am N 6 7 - - - - 10 - - 6.5 1022.8 0.0
17/07:30am NNW 6 7 - - - - 10 - - 4.9 1022.7 0.0
17/07:00am NNW 5 6 - - - - 10 - - 2.7 1022.6 0.0
17/06:30am N 5 6 - - - - 10 - - 1.2 1022.5 0.0
17/06:00am N 4 5 - - - - 10 - - 1.0 1022.3 0.0
17/05:30am N 5 7 - - - - 10 - - 1.6 1022.3 0.0
17/05:00am NW 6 7 - - - - 10 - - 1.8 1022.0 0.0
17/04:30am NW 6 7 - - - - 10 - - 1.1 1021.8 0.0
17/04:00am NNW 5 5 - - - - 10 - - 0.3 1021.7 0.0
17/03:30am N 5 5 - - - - 10 - - 1.7 1021.3 0.0
17/03:00am NW 5 6 - - - - 10 - - 0.9 1021.5 0.0
17/02:30am NW 6 7 - - - - 10 - - 1.1 1021.7 0.0
17/02:00am NW 5 6 - - - - 10 - - 0.4 1022.0 0.0
17/01:30am NNW 5 7 - - - - 10 - - 2.2 1022.4 0.0
17/01:00am NNW 5 6 - - - - 10 Partly cloudy - 2.7 1022.5 0.0
17/12:30am NW 5 7 - - - - 10 Cloudy - 3.6 1022.6 0.0
17/12:00am WSW 4 5 - - - - 10 Partly cloudy - 2.7 1022.5 0.0
 
Date/Time
EST
Wind Sea
Height
m
Swell Vis
km
Cloud Weather Temp
°C
Press
hPa
Rain since
9am
mm
Dir  Spd
kts
Gust
kts
Height
m
Period
s
Dir
16/11:30pm N 5 6 - - - - 10 Partly cloudy - 3.3 1022.8 0.0
16/11:00pm NW 6 7 - - - - 10 - - 3.2 1022.8 0.0
16/10:30pm NW 5 6 - - - - 10 - - 3.7 1023.0 0.0
16/10:00pm NW 6 7 - - - - 10 - - 3.5 1023.1 0.0
16/09:30pm NW 6 7 - - - - 10 - - 4.2 1023.2 0.0
16/09:00pm NW 5 7 - - - - 10 - - 4.1 1023.1 0.0
16/08:30pm W 5 6 - - - - 10 - - 5.2 1022.8 0.0
16/08:00pm WSW 7 8 - - - - 10 - - 6.5 1022.7 0.0
16/07:30pm NW 4 5 - - - - 10 - - 7.0 1022.4 0.0
16/07:00pm SW 8 9 - - - - 10 - - 7.6 1022.0 0.0
16/06:30pm SW 11 14 - - - - 10 - - 9.7 1021.7 0.0
16/06:00pm WSW 9 11 - - - - 10 - - 10.1 1021.2 0.0

Other Formats:

Comma delimited format used in spreadsheet applications
http://www.bom.gov.au/fwo/IDV60701/IDV60701.94912.axf

JavaScript Object Notation format (JSON) in row-major order
http://www.bom.gov.au/fwo/IDV60701/IDV60701.94912.json